Time;durP1;ratioP1;P1;durP2;ratioP2;P2;SDS_P1;SDS_P2;PMS_P1;PMS_P2;Temp;Humidity;BMP_temperature;BMP_pressure;BME280_temperature;BME280_humidity;BME280_pressure;Samples;Min_cycle;Max_cycle;Signal;HPM_P1;HPM_P2
2021/10/17 00:00:46;;;;;;;14.18;6.32;;;;;;;;;;2063548;28;20201;-51
2021/10/17 00:01:46;;;;;;;10.30;5.78;;;;;;;;;;2056288;28;20174;-52
2021/10/17 00:02:47;;;;;;;8.90;5.80;;;;;;;;;;2056699;28;20623;-49
2021/10/17 00:03:47;;;;;;;8.95;6.55;;;;;;;;;;2046517;28;20178;-50
2021/10/17 00:04:48;;;;;;;8.00;6.28;;;;;;;;;;2059215;28;20190;-55
2021/10/17 00:05:48;;;;;;;11.80;6.53;;;;;;;;;;2053315;28;20171;-51
2021/10/17 00:06:48;;;;;;;7.97;5.97;;;;;;;;;;2061409;28;20184;-54
2021/10/17 00:07:49;;;;;;;7.55;5.82;;;;;;;;;;2050305;28;20229;-53
2021/10/17 00:08:49;;;;;;;12.38;6.18;;;;;;;;;;2064613;28;20208;-51
2021/10/17 00:09:49;;;;;;;8.80;6.18;;;;;;;;;;2054296;28;20182;-53
2021/10/17 00:10:49;;;;;;;15.32;7.00;;;;;;;;;;2064059;28;20701;-50
2021/10/17 00:11:50;;;;;;;17.95;7.43;;;;;;;;;;2057170;28;20681;-51
2021/10/17 00:12:51;;;;;;;12.18;6.80;;;;;;;;;;2063917;28;20189;-53
2021/10/17 00:13:51;;;;;;;18.98;7.03;;;;;;;;;;2051088;28;20187;-53
2021/10/17 00:14:52;;;;;;;8.73;5.85;;;;;;;;;;2064521;28;20182;-53
2021/10/17 00:15:52;;;;;;;14.52;6.75;;;;;;;;;;2054433;28;20185;-50
2021/10/17 00:16:52;;;;;;;11.85;7.38;;;;;;;;;;2052456;28;20171;-58
2021/10/17 00:17:53;;;;;;;9.63;6.85;;;;;;;;;;2051960;28;20193;-52
2021/10/17 00:18:53;;;;;;;9.50;6.13;;;;;;;;;;2053598;28;20198;-52
2021/10/17 00:19:53;;;;;;;11.52;6.75;;;;;;;;;;2062098;28;20337;-50
2021/10/17 00:20:54;;;;;;;12.10;5.97;;;;;;;;;;2050184;28;20198;-52
2021/10/17 00:21:54;;;;;;;15.30;8.18;;;;;;;;;;2060597;28;20186;-50
2021/10/17 00:22:55;;;;;;;11.60;6.72;;;;;;;;;;2054683;28;20238;-49
2021/10/17 00:23:55;;;;;;;14.05;6.60;;;;;;;;;;2063756;28;20200;-51
2021/10/17 00:24:55;;;;;;;8.15;6.60;;;;;;;;;;2063954;28;20165;-53
2021/10/17 00:25:55;;;;;;;7.78;6.55;;;;;;;;;;2056926;28;20683;-53
2021/10/17 00:26:57;;;;;;;12.27;7.40;;;;;;;;;;2063737;28;20161;-54
2021/10/17 00:27:57;;;;;;;8.93;6.63;;;;;;;;;;2055937;28;20233;-50
2021/10/17 00:29:05;;;;;;;12.57;6.70;;;;;;;;;;2061373;28;20693;-50
2021/10/17 00:30:07;;;;;;;11.20;6.53;;;;;;;;;;2046619;28;20188;-49
2021/10/17 00:31:07;;;;;;;9.77;6.28;;;;;;;;;;2053946;28;20179;-52
2021/10/17 00:32:09;;;;;;;11.20;6.95;;;;;;;;;;2050965;28;20179;-50
2021/10/17 00:33:10;;;;;;;11.32;6.55;;;;;;;;;;2047996;28;20179;-50
2021/10/17 00:34:11;;;;;;;15.60;7.30;;;;;;;;;;2041695;29;20210;-51
2021/10/17 00:35:12;;;;;;;10.13;7.15;;;;;;;;;;2054339;28;20598;-50
2021/10/17 00:36:12;;;;;;;11.38;7.78;;;;;;;;;;2056908;28;20289;-52
2021/10/17 00:37:13;;;;;;;8.63;6.28;;;;;;;;;;2059557;28;20543;-50
2021/10/17 00:38:13;;;;;;;11.38;6.55;;;;;;;;;;2054772;28;20201;-51
2021/10/17 00:39:13;;;;;;;7.05;6.28;;;;;;;;;;2050371;28;20186;-53
2021/10/17 00:40:15;;;;;;;13.02;6.90;;;;;;;;;;2045274;29;20178;-56
2021/10/17 00:41:15;;;;;;;8.55;6.22;;;;;;;;;;2054861;28;20742;-52
2021/10/17 00:42:16;;;;;;;10.30;6.57;;;;;;;;;;2060628;28;20333;-49
2021/10/17 00:43:16;;;;;;;8.30;6.45;;;;;;;;;;2058081;28;20170;-54
2021/10/17 00:44:20;;;;;;;10.13;6.55;;;;;;;;;;2061043;28;20769;-53
2021/10/17 00:45:26;;;;;;;12.82;6.85;;;;;;;;;;2059090;28;20249;-52
2021/10/17 00:46:27;;;;;;;10.98;7.18;;;;;;;;;;2056863;28;20178;-54
2021/10/17 00:47:27;;;;;;;13.63;7.22;;;;;;;;;;2053863;28;20296;-53
2021/10/17 00:48:27;;;;;;;12.60;7.10;;;;;;;;;;2045944;29;20237;-53
2021/10/17 00:49:28;;;;;;;13.82;7.45;;;;;;;;;;2056821;28;20191;-49
2021/10/17 00:50:28;;;;;;;11.20;6.38;;;;;;;;;;2061769;28;20197;-49
2021/10/17 00:51:28;;;;;;;11.52;6.93;;;;;;;;;;2056824;28;20655;-49
2021/10/17 00:52:28;;;;;;;12.23;7.63;;;;;;;;;;2056365;28;20654;-53
2021/10/17 00:53:29;;;;;;;13.75;7.13;;;;;;;;;;2060173;28;20214;-55
2021/10/17 00:54:29;;;;;;;12.65;7.53;;;;;;;;;;2059930;28;20185;-55
2021/10/17 00:55:29;;;;;;;11.40;7.05;;;;;;;;;;2064235;28;20166;-57
2021/10/17 00:56:30;;;;;;;14.55;7.95;;;;;;;;;;2058495;28;20177;-56
2021/10/17 00:57:31;;;;;;;12.57;7.55;;;;;;;;;;2054581;28;20817;-57
2021/10/17 00:58:31;;;;;;;8.70;7.47;;;;;;;;;;2053207;28;20190;-56
2021/10/17 00:59:31;;;;;;;13.57;7.88;;;;;;;;;;2052157;28;20217;-55
2021/10/17 01:00:32;;;;;;;15.57;8.60;;;;;;;;;;2044867;29;20298;-55
2021/10/17 01:01:32;;;;;;;11.00;7.35;;;;;;;;;;2043739;29;20174;-55
2021/10/17 01:02:32;;;;;;;13.40;7.32;;;;;;;;;;2048975;28;20198;-55
2021/10/17 01:03:33;;;;;;;11.13;7.50;;;;;;;;;;2050243;28;20561;-54
2021/10/17 01:04:36;;;;;;;16.20;7.40;;;;;;;;;;2053156;28;20238;-55
2021/10/17 01:05:36;;;;;;;10.77;7.40;;;;;;;;;;2058325;28;20179;-55
2021/10/17 01:06:37;;;;;;;9.48;7.20;;;;;;;;;;2056200;28;20198;-54
2021/10/17 01:07:38;;;;;;;15.85;8.77;;;;;;;;;;2066046;28;20169;-57
2021/10/17 01:08:39;;;;;;;11.18;7.30;;;;;;;;;;2058235;28;20175;-56
2021/10/17 01:09:39;;;;;;;14.13;7.57;;;;;;;;;;2064433;28;20177;-56
2021/10/17 01:10:43;;;;;;;12.38;7.78;;;;;;;;;;2057932;28;20173;-55
2021/10/17 01:11:46;;;;;;;12.75;7.97;;;;;;;;;;2071449;28;20178;-55
2021/10/17 01:12:49;;;;;;;13.30;7.38;;;;;;;;;;2072741;28;20230;-56
2021/10/17 01:13:52;;;;;;;18.23;10.48;;;;;;;;;;2064340;28;20193;-56
2021/10/17 01:14:52;;;;;;;14.80;7.72;;;;;;;;;;2064479;28;20177;-54
2021/10/17 01:15:54;;;;;;;10.90;7.50;;;;;;;;;;2056279;28;20191;-55
2021/10/17 01:16:57;;;;;;;12.98;7.70;;;;;;;;;;2051960;28;20527;-53
2021/10/17 01:17:57;;;;;;;13.70;7.22;;;;;;;;;;2058563;28;20217;-56
2021/10/17 01:18:57;;;;;;;11.32;7.18;;;;;;;;;;2053136;28;20203;-55
2021/10/17 01:19:57;;;;;;;12.60;7.60;;;;;;;;;;2059539;28;20876;-54
2021/10/17 01:20:58;;;;;;;11.60;7.03;;;;;;;;;;2050119;29;20653;-54
2021/10/17 01:21:59;;;;;;;11.73;7.25;;;;;;;;;;2057244;28;20183;-56
2021/10/17 01:23:00;;;;;;;10.10;7.28;;;;;;;;;;2048463;29;20176;-54
2021/10/17 01:24:00;;;;;;;11.18;7.10;;;;;;;;;;2058089;28;20486;-58
2021/10/17 01:25:01;;;;;;;15.85;7.60;;;;;;;;;;2068524;28;20283;-57
2021/10/17 01:26:01;;;;;;;14.75;7.03;;;;;;;;;;2047511;29;20219;-56
2021/10/17 01:27:02;;;;;;;12.05;7.38;;;;;;;;;;2048477;29;20171;-54
2021/10/17 01:28:02;;;;;;;13.60;8.00;;;;;;;;;;2064796;28;20221;-54
2021/10/17 01:29:03;;;;;;;16.25;7.82;;;;;;;;;;2054906;28;20179;-54
2021/10/17 01:30:04;;;;;;;13.77;7.78;;;;;;;;;;2068067;28;20209;-57
2021/10/17 01:31:05;;;;;;;13.10;7.45;;;;;;;;;;2056425;28;20205;-57
2021/10/17 01:32:05;;;;;;;11.00;7.90;;;;;;;;;;2059742;28;20178;-55
2021/10/17 01:33:06;;;;;;;13.00;7.93;;;;;;;;;;2049994;28;20188;-56
2021/10/17 01:34:07;;;;;;;12.45;8.40;;;;;;;;;;2054357;28;20274;-56
2021/10/17 01:35:07;;;;;;;9.52;7.38;;;;;;;;;;2062445;28;20560;-55
2021/10/17 01:36:08;;;;;;;8.88;6.68;;;;;;;;;;2052610;28;20175;-56
2021/10/17 01:37:08;;;;;;;11.27;7.55;;;;;;;;;;2053246;28;20265;-56
2021/10/17 01:38:10;;;;;;;17.10;7.78;;;;;;;;;;2055130;28;20289;-55
2021/10/17 01:39:12;;;;;;;9.02;7.50;;;;;;;;;;2054692;28;20175;-57
2021/10/17 01:40:12;;;;;;;8.18;6.60;;;;;;;;;;2059354;28;20173;-53
2021/10/17 01:41:12;;;;;;;12.63;7.28;;;;;;;;;;2061591;28;20272;-53
2021/10/17 01:42:13;;;;;;;11.55;7.55;;;;;;;;;;2052944;28;20201;-54
2021/10/17 01:43:17;;;;;;;11.93;7.70;;;;;;;;;;2046995;28;20215;-55
2021/10/17 01:44:40;;;;;;;12.85;7.78;;;;;;;;;;2047144;29;20278;-56
2021/10/17 01:45:40;;;;;;;11.93;7.47;;;;;;;;;;2054494;28;20179;-55
2021/10/17 01:46:47;;;;;;;15.05;7.78;;;;;;;;;;2051535;28;20650;-57
2021/10/17 01:47:49;;;;;;;14.52;8.10;;;;;;;;;;2044319;29;20183;-55
2021/10/17 01:48:52;;;;;;;11.30;7.40;;;;;;;;;;2046239;28;20191;-56
2021/10/17 01:49:52;;;;;;;9.90;7.28;;;;;;;;;;2059879;28;20197;-53
2021/10/17 01:50:52;;;;;;;13.52;6.88;;;;;;;;;;2056652;28;20215;-54
2021/10/17 01:51:53;;;;;;;9.00;7.38;;;;;;;;;;2050847;28;20179;-53
2021/10/17 01:52:53;;;;;;;10.38;7.18;;;;;;;;;;2051504;28;20174;-55
2021/10/17 01:53:54;;;;;;;14.15;7.53;;;;;;;;;;2044984;28;20355;-55
2021/10/17 01:54:54;;;;;;;15.77;7.50;;;;;;;;;;2055919;28;20164;-55
2021/10/17 01:55:58;;;;;;;14.20;7.88;;;;;;;;;;2056581;28;20180;-55
2021/10/17 01:57:00;;;;;;;14.07;6.95;;;;;;;;;;2054614;28;20163;-53
2021/10/17 01:58:06;;;;;;;9.23;6.90;;;;;;;;;;2046857;29;20729;-55
2021/10/17 01:59:07;;;;;;;12.02;7.90;;;;;;;;;;2046213;28;20172;-56
2021/10/17 02:00:19;;;;;;;13.15;7.57;;;;;;;;;;2051295;28;20241;-54
2021/10/17 02:01:23;;;;;;;12.30;7.82;;;;;;;;;;2057017;28;20262;-53
2021/10/17 02:02:24;;;;;;;12.60;7.45;;;;;;;;;;2054686;28;20186;-55
2021/10/17 02:03:24;;;;;;;9.95;7.85;;;;;;;;;;2055794;28;20600;-54
2021/10/17 02:04:26;;;;;;;13.10;7.72;;;;;;;;;;2061668;28;20212;-55
2021/10/17 02:05:27;;;;;;;11.75;8.20;;;;;;;;;;2064871;28;20169;-53
2021/10/17 02:06:30;;;;;;;10.65;7.97;;;;;;;;;;2064365;28;20630;-55
2021/10/17 02:07:32;;;;;;;9.80;7.43;;;;;;;;;;2060119;28;20282;-54
2021/10/17 02:08:34;;;;;;;15.95;8.43;;;;;;;;;;2067135;28;20209;-54
2021/10/17 02:09:35;;;;;;;10.95;7.40;;;;;;;;;;2059474;28;20186;-55
2021/10/17 02:10:37;;;;;;;12.07;7.50;;;;;;;;;;2058107;28;20249;-56
2021/10/17 02:11:42;;;;;;;16.00;8.30;;;;;;;;;;2054509;28;20174;-54
2021/10/17 02:12:45;;;;;;;12.15;7.80;;;;;;;;;;2066527;28;20200;-56
2021/10/17 02:13:46;;;;;;;13.70;7.95;;;;;;;;;;2056638;28;20182;-53
2021/10/17 02:14:47;;;;;;;9.88;7.20;;;;;;;;;;2059751;28;20208;-55
2021/10/17 02:15:48;;;;;;;18.80;8.15;;;;;;;;;;2045522;28;20182;-53
2021/10/17 02:16:49;;;;;;;17.48;8.18;;;;;;;;;;2066544;28;20178;-54
2021/10/17 02:17:50;;;;;;;11.15;7.60;;;;;;;;;;2050600;28;20179;-55
2021/10/17 02:18:50;;;;;;;12.27;7.28;;;;;;;;;;2052889;28;20166;-54
2021/10/17 02:19:51;;;;;;;12.55;7.15;;;;;;;;;;2043373;29;20184;-53
2021/10/17 02:20:53;;;;;;;10.55;7.28;;;;;;;;;;2052358;28;20163;-53
2021/10/17 02:21:53;;;;;;;14.18;8.02;;;;;;;;;;2056822;28;20174;-55
2021/10/17 02:22:53;;;;;;;13.02;7.72;;;;;;;;;;2057928;28;20493;-56
2021/10/17 02:23:54;;;;;;;11.05;8.18;;;;;;;;;;2051061;28;20186;-55
2021/10/17 02:24:56;;;;;;;10.30;7.72;;;;;;;;;;2049312;29;20179;-56
2021/10/17 02:25:57;;;;;;;12.43;7.93;;;;;;;;;;2044787;28;20205;-55
2021/10/17 02:27:15;;;;;;;12.85;7.78;;;;;;;;;;2062046;28;20165;-56
2021/10/17 02:28:22;;;;;;;10.88;7.35;;;;;;;;;;2055494;28;20241;-54
2021/10/17 02:29:26;;;;;;;12.88;8.13;;;;;;;;;;2055616;28;20178;-56
2021/10/17 02:31:05;;;;;;;11.07;7.07;;;;;;;;;;2049935;28;20178;-57
2021/10/17 02:32:06;;;;;;;12.27;7.85;;;;;;;;;;2063005;28;20191;-57
2021/10/17 02:33:07;;;;;;;14.25;7.85;;;;;;;;;;2050228;28;20164;-56
2021/10/17 02:34:07;;;;;;;13.75;7.50;;;;;;;;;;2059774;28;20174;-54
2021/10/17 02:35:07;;;;;;;9.60;7.10;;;;;;;;;;2062982;28;20285;-54
2021/10/17 02:36:07;;;;;;;12.10;7.38;;;;;;;;;;2058633;28;20167;-56
2021/10/17 02:37:10;;;;;;;10.68;7.22;;;;;;;;;;2059385;28;20724;-55
2021/10/17 02:38:10;;;;;;;12.07;7.53;;;;;;;;;;2058172;28;20252;-54
2021/10/17 02:39:10;;;;;;;13.73;7.20;;;;;;;;;;2045335;28;20640;-51
2021/10/17 02:40:12;;;;;;;15.43;7.20;;;;;;;;;;2047483;28;20713;-55
2021/10/17 02:41:13;;;;;;;9.65;6.90;;;;;;;;;;2051446;28;20178;-54
2021/10/17 02:42:14;;;;;;;14.55;8.23;;;;;;;;;;2053135;28;20652;-52
2021/10/17 02:43:18;;;;;;;13.68;8.00;;;;;;;;;;2041432;28;20191;-51
2021/10/17 02:44:19;;;;;;;12.80;6.85;;;;;;;;;;2048600;28;20190;-52
2021/10/17 02:45:19;;;;;;;9.60;6.45;;;;;;;;;;2054893;28;20658;-54
2021/10/17 02:46:20;;;;;;;11.68;6.95;;;;;;;;;;2053430;28;20269;-52
2021/10/17 02:47:21;;;;;;;12.48;6.97;;;;;;;;;;2053449;28;20201;-50
2021/10/17 02:48:21;;;;;;;11.77;7.78;;;;;;;;;;2053987;28;20210;-50
2021/10/17 02:49:22;;;;;;;14.25;7.85;;;;;;;;;;2044625;28;20576;-54
2021/10/17 02:50:22;;;;;;;15.45;7.75;;;;;;;;;;2048818;29;20177;-52
2021/10/17 02:51:24;;;;;;;11.45;7.72;;;;;;;;;;2048866;28;20186;-49
2021/10/17 02:52:25;;;;;;;13.15;7.05;;;;;;;;;;2049335;29;20190;-52
2021/10/17 02:53:25;;;;;;;14.85;8.18;;;;;;;;;;2049588;28;20179;-50
2021/10/17 02:54:25;;;;;;;14.98;8.52;;;;;;;;;;2049906;29;20292;-49
2021/10/17 02:55:26;;;;;;;12.45;7.90;;;;;;;;;;2049338;28;20635;-52
2021/10/17 02:56:27;;;;;;;15.10;7.32;;;;;;;;;;2049714;28;20186;-50
2021/10/17 02:57:27;;;;;;;14.07;8.43;;;;;;;;;;2057406;28;20182;-50
2021/10/17 02:58:28;;;;;;;10.30;6.78;;;;;;;;;;2057773;28;20232;-49
2021/10/17 02:59:33;;;;;;;13.10;8.15;;;;;;;;;;2057372;28;20166;-50
2021/10/17 03:00:34;;;;;;;11.70;7.55;;;;;;;;;;2041197;29;20186;-51
2021/10/17 03:01:34;;;;;;;9.73;7.60;;;;;;;;;;2040727;29;20287;-50
2021/10/17 03:02:35;;;;;;;9.30;7.20;;;;;;;;;;2049795;28;20183;-50
2021/10/17 03:03:35;;;;;;;12.57;7.55;;;;;;;;;;2049732;28;20558;-50
2021/10/17 03:04:36;;;;;;;9.43;7.40;;;;;;;;;;2049545;29;20198;-49
2021/10/17 03:05:36;;;;;;;13.50;7.47;;;;;;;;;;2049082;28;20175;-51
2021/10/17 03:06:38;;;;;;;13.18;7.82;;;;;;;;;;2049817;28;20175;-50
2021/10/17 03:07:39;;;;;;;12.20;8.27;;;;;;;;;;2057732;28;20623;-50
2021/10/17 03:08:41;;;;;;;12.32;7.15;;;;;;;;;;2055156;28;20174;-49
2021/10/17 03:09:42;;;;;;;13.60;7.70;;;;;;;;;;2055733;28;20242;-49
2021/10/17 03:10:42;;;;;;;9.80;7.85;;;;;;;;;;2056524;28;20222;-50
2021/10/17 03:11:43;;;;;;;16.10;7.53;;;;;;;;;;2055313;28;20178;-50
2021/10/17 03:12:43;;;;;;;10.75;7.40;;;;;;;;;;2049616;28;20167;-50
2021/10/17 03:13:48;;;;;;;16.55;7.82;;;;;;;;;;2049288;28;20175;-50
2021/10/17 03:14:57;;;;;;;12.52;7.85;;;;;;;;;;2048840;29;20167;-50
2021/10/17 03:15:58;;;;;;;12.20;7.35;;;;;;;;;;2048559;29;20679;-52
2021/10/17 03:16:58;;;;;;;14.48;8.00;;;;;;;;;;2040947;29;20175;-51
2021/10/17 03:17:58;;;;;;;13.70;7.68;;;;;;;;;;2049359;28;20207;-50
2021/10/17 03:18:59;;;;;;;11.50;7.47;;;;;;;;;;2049204;28;20182;-50
2021/10/17 03:20:02;;;;;;;14.48;7.47;;;;;;;;;;2049492;28;20185;-49
2021/10/17 03:21:08;;;;;;;12.45;7.47;;;;;;;;;;2049377;28;20258;-49
2021/10/17 03:22:09;;;;;;;9.15;6.95;;;;;;;;;;2049330;29;20230;-50
2021/10/17 03:23:10;;;;;;;12.73;7.30;;;;;;;;;;2041086;29;20745;-51
2021/10/17 03:24:11;;;;;;;13.32;7.72;;;;;;;;;;2041222;29;20203;-51
2021/10/17 03:25:11;;;;;;;11.88;7.45;;;;;;;;;;2049346;28;20583;-49
2021/10/17 03:26:12;;;;;;;12.48;7.65;;;;;;;;;;2057212;28;20264;-49
2021/10/17 03:27:16;;;;;;;11.43;7.75;;;;;;;;;;2049722;28;20171;-52
2021/10/17 03:28:20;;;;;;;13.02;7.32;;;;;;;;;;2049735;28;20198;-53
2021/10/17 03:29:20;;;;;;;10.18;7.90;;;;;;;;;;2049063;28;20190;-51
2021/10/17 03:30:28;;;;;;;14.13;7.70;;;;;;;;;;2056777;28;20217;-50
2021/10/17 03:31:28;;;;;;;14.45;8.25;;;;;;;;;;2057028;28;20297;-51
2021/10/17 03:32:32;;;;;;;11.98;8.10;;;;;;;;;;2049254;28;20182;-50
2021/10/17 03:33:32;;;;;;;13.55;7.68;;;;;;;;;;2049090;28;20256;-51
2021/10/17 03:34:38;;;;;;;13.02;7.63;;;;;;;;;;2049844;28;20193;-52
2021/10/17 03:35:38;;;;;;;13.70;7.25;;;;;;;;;;2056721;28;20186;-54
2021/10/17 03:36:39;;;;;;;11.65;7.20;;;;;;;;;;2049169;29;20291;-50
2021/10/17 03:37:39;;;;;;;9.82;7.30;;;;;;;;;;2049160;28;20696;-51
2021/10/17 03:38:39;;;;;;;14.88;8.02;;;;;;;;;;2057139;28;20182;-49
2021/10/17 03:39:40;;;;;;;11.88;7.22;;;;;;;;;;2048994;28;20541;-51
2021/10/17 03:40:40;;;;;;;12.68;7.80;;;;;;;;;;2048691;29;20194;-50
2021/10/17 03:41:41;;;;;;;13.88;7.15;;;;;;;;;;2049682;28;20194;-52
2021/10/17 03:42:41;;;;;;;17.58;7.57;;;;;;;;;;2049356;28;20187;-53
2021/10/17 03:43:42;;;;;;;12.00;7.43;;;;;;;;;;2041555;29;20184;-49
2021/10/17 03:44:43;;;;;;;11.68;7.45;;;;;;;;;;2049094;28;20540;-52
2021/10/17 03:45:43;;;;;;;11.73;7.47;;;;;;;;;;2047935;28;20186;-52
2021/10/17 03:46:45;;;;;;;14.35;7.30;;;;;;;;;;2056049;28;20178;-51
2021/10/17 03:47:45;;;;;;;11.30;6.95;;;;;;;;;;2049534;28;20563;-49
2021/10/17 03:48:45;;;;;;;12.02;7.70;;;;;;;;;;2049663;28;20163;-52
2021/10/17 03:49:50;;;;;;;10.80;6.90;;;;;;;;;;2056691;28;20189;-52
2021/10/17 03:50:58;;;;;;;12.32;7.93;;;;;;;;;;2056999;28;20545;-50
2021/10/17 03:51:58;;;;;;;13.70;7.78;;;;;;;;;;2056921;28;20250;-49
2021/10/17 03:52:59;;;;;;;13.30;7.50;;;;;;;;;;2041230;29;20179;-52
2021/10/17 03:54:00;;;;;;;13.90;7.93;;;;;;;;;;2040699;29;20172;-52
2021/10/17 03:55:00;;;;;;;11.55;7.68;;;;;;;;;;2048477;29;20182;-50
2021/10/17 03:56:00;;;;;;;14.98;8.40;;;;;;;;;;2055867;28;20191;-50
2021/10/17 03:57:01;;;;;;;13.85;7.25;;;;;;;;;;2048602;29;20274;-50
2021/10/17 03:58:01;;;;;;;11.27;7.70;;;;;;;;;;2049012;28;20203;-51
2021/10/17 03:59:01;;;;;;;15.25;7.47;;;;;;;;;;2057127;28;20195;-49
2021/10/17 04:00:03;;;;;;;10.43;7.80;;;;;;;;;;2048694;28;20195;-52
2021/10/17 04:01:13;;;;;;;11.98;7.30;;;;;;;;;;2050756;28;20194;-50
2021/10/17 04:02:14;;;;;;;14.90;7.95;;;;;;;;;;2056988;28;20175;-53
2021/10/17 04:03:14;;;;;;;10.93;7.45;;;;;;;;;;2049034;28;20217;-53
2021/10/17 04:04:15;;;;;;;13.57;8.60;;;;;;;;;;2048707;29;20245;-52
2021/10/17 04:05:15;;;;;;;10.25;7.60;;;;;;;;;;2056974;28;20178;-51
2021/10/17 04:06:15;;;;;;;12.52;7.80;;;;;;;;;;2048668;29;20175;-51
2021/10/17 04:07:16;;;;;;;14.30;8.35;;;;;;;;;;2047870;28;20658;-51
2021/10/17 04:08:17;;;;;;;10.23;7.72;;;;;;;;;;2059546;28;20288;-50
2021/10/17 04:09:19;;;;;;;11.15;7.55;;;;;;;;;;2059995;28;20273;-55
2021/10/17 04:10:19;;;;;;;15.13;8.20;;;;;;;;;;2047612;28;20713;-53
2021/10/17 04:11:21;;;;;;;14.00;7.53;;;;;;;;;;2049065;28;20178;-52
2021/10/17 04:12:21;;;;;;;12.00;7.72;;;;;;;;;;2051228;28;20183;-53
2021/10/17 04:13:25;;;;;;;14.07;8.23;;;;;;;;;;2053132;28;20598;-53
2021/10/17 04:14:26;;;;;;;10.27;8.07;;;;;;;;;;2042026;28;20215;-52
2021/10/17 04:15:26;;;;;;;13.20;7.90;;;;;;;;;;2050591;28;20194;-52
2021/10/17 04:16:26;;;;;;;14.32;8.68;;;;;;;;;;2052315;28;20185;-52
2021/10/17 04:17:27;;;;;;;11.07;8.45;;;;;;;;;;2045326;28;20186;-54
2021/10/17 04:18:27;;;;;;;15.57;7.88;;;;;;;;;;2051378;28;20195;-54
2021/10/17 04:19:28;;;;;;;16.67;8.52;;;;;;;;;;2051432;28;20186;-53
2021/10/17 04:20:28;;;;;;;11.57;7.90;;;;;;;;;;2045662;28;20219;-52
2021/10/17 04:21:28;;;;;;;11.88;8.10;;;;;;;;;;2049341;28;20183;-54
2021/10/17 04:22:29;;;;;;;15.98;8.65;;;;;;;;;;2054004;28;20178;-51
2021/10/17 04:23:29;;;;;;;12.02;8.40;;;;;;;;;;2048575;28;20660;-50
2021/10/17 04:24:30;;;;;;;10.82;8.30;;;;;;;;;;2048381;28;20206;-51
2021/10/17 04:25:31;;;;;;;16.60;8.32;;;;;;;;;;2045967;29;20551;-50
2021/10/17 04:26:31;;;;;;;11.20;7.72;;;;;;;;;;2041885;29;20179;-50
2021/10/17 04:27:32;;;;;;;12.57;8.27;;;;;;;;;;2042857;29;20207;-53
2021/10/17 04:28:32;;;;;;;11.80;7.75;;;;;;;;;;2046208;29;20311;-54
2021/10/17 04:29:32;;;;;;;14.05;8.25;;;;;;;;;;2057281;28;20170;-50
2021/10/17 04:30:32;;;;;;;12.55;7.80;;;;;;;;;;2054715;28;20186;-55
2021/10/17 04:31:33;;;;;;;12.38;7.55;;;;;;;;;;2061161;28;20640;-52
2021/10/17 04:32:33;;;;;;;12.90;7.38;;;;;;;;;;2058194;28;20178;-52
2021/10/17 04:33:33;;;;;;;9.90;7.53;;;;;;;;;;2060976;28;20181;-51
2021/10/17 04:34:35;;;;;;;13.73;8.02;;;;;;;;;;2056415;28;20181;-51
2021/10/17 04:35:37;;;;;;;17.50;8.35;;;;;;;;;;2060435;28;20699;-52
2021/10/17 04:36:38;;;;;;;18.55;8.30;;;;;;;;;;2062812;28;20178;-52
2021/10/17 04:37:39;;;;;;;12.63;8.13;;;;;;;;;;2056683;28;20190;-53
2021/10/17 04:38:39;;;;;;;13.68;8.63;;;;;;;;;;2063058;28;20575;-51
2021/10/17 04:39:41;;;;;;;12.70;8.23;;;;;;;;;;2056270;28;20305;-51
2021/10/17 04:40:41;;;;;;;13.88;8.35;;;;;;;;;;2055381;28;20283;-51
2021/10/17 04:41:42;;;;;;;13.90;8.40;;;;;;;;;;2055300;28;20180;-51
2021/10/17 04:42:42;;;;;;;11.70;8.23;;;;;;;;;;2056086;28;20175;-50
2021/10/17 04:43:42;;;;;;;16.05;9.10;;;;;;;;;;2055040;28;20761;-51
2021/10/17 04:44:42;;;;;;;11.68;8.85;;;;;;;;;;2050718;28;20577;-51
2021/10/17 04:45:43;;;;;;;13.43;8.73;;;;;;;;;;2057298;28;20526;-53
2021/10/17 04:46:46;;;;;;;12.68;8.43;;;;;;;;;;2056334;28;20166;-53
2021/10/17 04:47:46;;;;;;;14.73;8.43;;;;;;;;;;2056568;28;20186;-51
2021/10/17 04:48:46;;;;;;;11.13;8.68;;;;;;;;;;2056736;28;20201;-51
2021/10/17 04:49:46;;;;;;;12.05;8.20;;;;;;;;;;2056738;28;20194;-50
2021/10/17 04:50:47;;;;;;;15.25;8.60;;;;;;;;;;2056668;28;20182;-51
2021/10/17 04:51:47;;;;;;;17.08;8.65;;;;;;;;;;2048802;29;20185;-53
2021/10/17 04:52:47;;;;;;;16.35;9.63;;;;;;;;;;2049041;28;20167;-53
2021/10/17 04:53:47;;;;;;;16.60;8.75;;;;;;;;;;2049919;28;20577;-55
2021/10/17 04:54:50;;;;;;;15.15;8.88;;;;;;;;;;2049757;28;20269;-55
2021/10/17 04:55:52;;;;;;;15.95;9.27;;;;;;;;;;2056970;28;20181;-54
2021/10/17 04:56:52;;;;;;;13.30;9.00;;;;;;;;;;2049617;29;20179;-54
2021/10/17 04:57:55;;;;;;;16.27;9.70;;;;;;;;;;2049309;28;20597;-52
2021/10/17 04:58:57;;;;;;;11.60;8.77;;;;;;;;;;2049170;28;20171;-51
2021/10/17 04:59:57;;;;;;;15.60;9.23;;;;;;;;;;2056868;28;20209;-51
2021/10/17 05:00:57;;;;;;;16.73;9.20;;;;;;;;;;2048663;28;20175;-53
2021/10/17 05:01:58;;;;;;;13.63;9.10;;;;;;;;;;2048752;29;20182;-54
2021/10/17 05:02:58;;;;;;;16.75;9.93;;;;;;;;;;2049111;28;20175;-51
2021/10/17 05:04:00;;;;;;;12.45;9.23;;;;;;;;;;2048564;29;20590;-53
2021/10/17 05:05:00;;;;;;;12.50;9.25;;;;;;;;;;2048885;28;20183;-52
2021/10/17 05:06:01;;;;;;;10.90;9.60;;;;;;;;;;2058079;28;20170;-55
2021/10/17 05:07:01;;;;;;;15.40;9.95;;;;;;;;;;2059239;28;20274;-55
2021/10/17 05:08:03;;;;;;;18.45;9.88;;;;;;;;;;2059674;28;20213;-56
2021/10/17 05:09:07;;;;;;;16.50;10.50;;;;;;;;;;2051387;29;20207;-55
2021/10/17 05:10:08;;;;;;;18.70;9.68;;;;;;;;;;2048818;28;20171;-52
2021/10/17 05:11:09;;;;;;;14.10;9.88;;;;;;;;;;2055905;28;20229;-53
2021/10/17 05:12:09;;;;;;;13.57;9.88;;;;;;;;;;2048810;29;20595;-50
2021/10/17 05:13:09;;;;;;;14.20;10.02;;;;;;;;;;2048604;29;20209;-51
2021/10/17 05:14:09;;;;;;;13.73;10.23;;;;;;;;;;2056543;28;20236;-51
2021/10/17 05:15:10;;;;;;;15.38;9.73;;;;;;;;;;2048558;28;20185;-52
2021/10/17 05:16:11;;;;;;;12.13;10.10;;;;;;;;;;2040565;29;20175;-53
2021/10/17 05:17:12;;;;;;;17.08;10.38;;;;;;;;;;2040634;29;20179;-51
2021/10/17 05:18:13;;;;;;;15.55;9.65;;;;;;;;;;2048128;28;20254;-54
2021/10/17 05:19:17;;;;;;;12.38;10.07;;;;;;;;;;2048566;29;20179;-53
2021/10/17 05:20:19;;;;;;;12.15;10.38;;;;;;;;;;2047998;28;20715;-51
2021/10/17 05:21:19;;;;;;;13.38;9.65;;;;;;;;;;2048564;28;20182;-52
2021/10/17 05:22:21;;;;;;;13.18;9.20;;;;;;;;;;2056546;28;20174;-51
2021/10/17 05:23:24;;;;;;;11.30;8.57;;;;;;;;;;2056529;28;20179;-51
2021/10/17 05:24:25;;;;;;;13.68;10.10;;;;;;;;;;2048789;28;20241;-50
2021/10/17 05:25:27;;;;;;;14.43;9.75;;;;;;;;;;2042291;28;20551;-53
2021/10/17 05:26:27;;;;;;;12.10;9.15;;;;;;;;;;2042295;29;20274;-51
2021/10/17 05:27:28;;;;;;;13.98;9.02;;;;;;;;;;2049855;29;20697;-52
2021/10/17 05:28:28;;;;;;;17.52;9.57;;;;;;;;;;2050033;28;20201;-52
2021/10/17 05:29:32;;;;;;;16.67;9.55;;;;;;;;;;2054710;28;20624;-53
2021/10/17 05:30:33;;;;;;;13.20;9.63;;;;;;;;;;2057309;28;20189;-52
2021/10/17 05:31:34;;;;;;;14.90;8.55;;;;;;;;;;2044247;28;20186;-51
2021/10/17 05:32:34;;;;;;;16.52;9.85;;;;;;;;;;2051334;28;20237;-51
2021/10/17 05:33:36;;;;;;;12.40;9.70;;;;;;;;;;2048692;29;20171;-52
2021/10/17 05:34:37;;;;;;;14.23;9.82;;;;;;;;;;2065225;28;20737;-50
2021/10/17 05:35:37;;;;;;;13.57;8.32;;;;;;;;;;2041150;28;20266;-53
2021/10/17 05:36:39;;;;;;;16.90;9.10;;;;;;;;;;2055722;28;20181;-52
2021/10/17 05:37:40;;;;;;;15.25;8.60;;;;;;;;;;2047805;28;20572;-55
2021/10/17 05:38:40;;;;;;;15.23;8.68;;;;;;;;;;2054050;28;20185;-52
2021/10/17 05:39:41;;;;;;;13.05;9.43;;;;;;;;;;2049471;28;20190;-52
2021/10/17 05:40:41;;;;;;;17.88;9.57;;;;;;;;;;2046030;28;20183;-52
2021/10/17 05:41:42;;;;;;;13.52;9.43;;;;;;;;;;2055916;28;20174;-52
2021/10/17 05:42:42;;;;;;;12.15;9.35;;;;;;;;;;2058115;28;20186;-52
2021/10/17 05:43:43;;;;;;;16.52;9.85;;;;;;;;;;2052825;28;20183;-52
2021/10/17 05:44:44;;;;;;;11.70;8.55;;;;;;;;;;2056993;28;20202;-54
2021/10/17 05:45:45;;;;;;;13.27;8.40;;;;;;;;;;2057021;28;20178;-51
2021/10/17 05:46:46;;;;;;;18.20;9.48;;;;;;;;;;2056307;28;20200;-53
2021/10/17 05:47:46;;;;;;;11.77;8.45;;;;;;;;;;2054403;28;20182;-53
2021/10/17 05:48:48;;;;;;;13.50;8.77;;;;;;;;;;2049046;28;20184;-61
2021/10/17 05:49:49;;;;;;;12.50;9.52;;;;;;;;;;2107854;23;20227;-60
2021/10/17 05:50:49;;;;;;;15.73;9.38;;;;;;;;;;2093807;28;20195;-57
2021/10/17 05:51:50;;;;;;;12.43;8.65;;;;;;;;;;2084278;28;20489;-59
2021/10/17 05:52:50;;;;;;;16.38;8.95;;;;;;;;;;2089662;28;20186;-60
2021/10/17 05:53:52;;;;;;;15.40;9.45;;;;;;;;;;2083514;28;20442;-60
2021/10/17 05:54:52;;;;;;;18.08;9.27;;;;;;;;;;2091864;28;20259;-59
2021/10/17 05:55:53;;;;;;;16.73;8.98;;;;;;;;;;2082317;28;20710;-59
2021/10/17 05:56:53;;;;;;;14.00;7.97;;;;;;;;;;2083179;28;20296;-57
2021/10/17 05:57:54;;;;;;;15.60;9.57;;;;;;;;;;2076433;28;20188;-57
2021/10/17 05:58:55;;;;;;;16.40;9.35;;;;;;;;;;2074730;28;20272;-58
2021/10/17 05:59:55;;;;;;;16.55;8.93;;;;;;;;;;2081496;28;20180;-56
2021/10/17 06:00:55;;;;;;;15.00;8.80;;;;;;;;;;2089200;28;20274;-57
2021/10/17 06:01:56;;;;;;;14.85;9.45;;;;;;;;;;2081814;28;20179;-58
2021/10/17 06:03:04;;;;;;;13.93;9.15;;;;;;;;;;2075133;28;20169;-56